sensor_id;sensor_type;location;lat;lon;timestamp;temperature;humidity
40253;DHT22;25972;51.854;4.534;2024-03-22T00:01:54;11.60;99.90
40253;DHT22;25972;51.854;4.534;2024-03-22T00:04:20;11.70;99.90
40253;DHT22;25972;51.854;4.534;2024-03-22T00:06:47;11.70;99.90
40253;DHT22;25972;51.854;4.534;2024-03-22T00:09:14;11.70;99.90
40253;DHT22;25972;51.854;4.534;2024-03-22T00:11:41;11.70;99.90
40253;DHT22;25972;51.854;4.534;2024-03-22T00:14:07;11.60;99.90
40253;DHT22;25972;51.854;4.534;2024-03-22T00:16:33;11.60;99.90
40253;DHT22;25972;51.854;4.534;2024-03-22T00:18:59;11.60;99.90
40253;DHT22;25972;51.854;4.534;2024-03-22T00:21:25;11.60;99.90
40253;DHT22;25972;51.854;4.534;2024-03-22T00:23:50;11.60;99.90
40253;DHT22;25972;51.854;4.534;2024-03-22T00:26:16;11.50;99.90
40253;DHT22;25972;51.854;4.534;2024-03-22T00:28:42;11.40;99.90
40253;DHT22;25972;51.854;4.534;2024-03-22T00:31:08;11.40;99.90
40253;DHT22;25972;51.854;4.534;2024-03-22T00:33:34;11.40;99.90
40253;DHT22;25972;51.854;4.534;2024-03-22T00:36:00;11.40;99.90
40253;DHT22;25972;51.854;4.534;2024-03-22T00:38:25;11.40;99.90
40253;DHT22;25972;51.854;4.534;2024-03-22T00:40:51;11.30;99.90
40253;DHT22;25972;51.854;4.534;2024-03-22T00:43:17;11.30;99.90
40253;DHT22;25972;51.854;4.534;2024-03-22T00:45:42;11.30;99.90
40253;DHT22;25972;51.854;4.534;2024-03-22T00:48:09;11.20;99.90
40253;DHT22;25972;51.854;4.534;2024-03-22T00:50:35;11.20;99.90
40253;DHT22;25972;51.854;4.534;2024-03-22T00:53:00;11.20;99.90
40253;DHT22;25972;51.854;4.534;2024-03-22T00:55:28;11.20;99.90
40253;DHT22;25972;51.854;4.534;2024-03-22T00:57:54;11.20;99.90
40253;DHT22;25972;51.854;4.534;2024-03-22T01:00:20;11.20;99.90
40253;DHT22;25972;51.854;4.534;2024-03-22T01:02:45;11.10;99.90
40253;DHT22;25972;51.854;4.534;2024-03-22T01:05:11;11.10;99.90
40253;DHT22;25972;51.854;4.534;2024-03-22T01:07:37;11.10;99.90
40253;DHT22;25972;51.854;4.534;2024-03-22T01:10:06;11.00;99.90
40253;DHT22;25972;51.854;4.534;2024-03-22T01:12:32;11.00;99.90
40253;DHT22;25972;51.854;4.534;2024-03-22T01:14:58;10.90;99.90
40253;DHT22;25972;51.854;4.534;2024-03-22T01:17:23;10.80;99.90
40253;DHT22;25972;51.854;4.534;2024-03-22T01:19:49;10.80;99.90
40253;DHT22;25972;51.854;4.534;2024-03-22T01:22:16;10.70;99.90
40253;DHT22;25972;51.854;4.534;2024-03-22T01:28:05;10.70;99.90
40253;DHT22;25972;51.854;4.534;2024-03-22T01:30:31;10.70;99.90
40253;DHT22;25972;51.854;4.534;2024-03-22T01:32:56;10.70;99.90
40253;DHT22;25972;51.854;4.534;2024-03-22T01:35:22;10.60;99.90
40253;DHT22;25972;51.854;4.534;2024-03-22T01:37:47;10.60;99.90
40253;DHT22;25972;51.854;4.534;2024-03-22T01:40:13;10.60;99.90
40253;DHT22;25972;51.854;4.534;2024-03-22T01:42:39;10.60;99.90
40253;DHT22;25972;51.854;4.534;2024-03-22T01:45:05;10.60;99.90
40253;DHT22;25972;51.854;4.534;2024-03-22T01:47:31;10.60;99.90
40253;DHT22;25972;51.854;4.534;2024-03-22T01:49:57;10.60;99.90
40253;DHT22;25972;51.854;4.534;2024-03-22T01:52:23;10.60;99.90
40253;DHT22;25972;51.854;4.534;2024-03-22T01:54:49;10.50;99.90
40253;DHT22;25972;51.854;4.534;2024-03-22T01:57:15;10.60;99.90
40253;DHT22;25972;51.854;4.534;2024-03-22T01:59:41;10.60;99.90
40253;DHT22;25972;51.854;4.534;2024-03-22T02:02:08;10.60;99.90
40253;DHT22;25972;51.854;4.534;2024-03-22T02:04:34;10.50;99.90
40253;DHT22;25972;51.854;4.534;2024-03-22T02:07:00;10.50;99.90
40253;DHT22;25972;51.854;4.534;2024-03-22T02:09:25;10.50;99.90
40253;DHT22;25972;51.854;4.534;2024-03-22T02:11:51;10.50;99.90
40253;DHT22;25972;51.854;4.534;2024-03-22T02:14:17;10.50;99.90
40253;DHT22;25972;51.854;4.534;2024-03-22T02:16:43;10.50;99.90
40253;DHT22;25972;51.854;4.534;2024-03-22T02:19:10;10.50;99.90
40253;DHT22;25972;51.854;4.534;2024-03-22T02:21:36;10.50;99.90
40253;DHT22;25972;51.854;4.534;2024-03-22T02:24:01;10.50;99.90
40253;DHT22;25972;51.854;4.534;2024-03-22T02:26:27;10.50;99.90
40253;DHT22;25972;51.854;4.534;2024-03-22T02:28:53;10.50;99.90
40253;DHT22;25972;51.854;4.534;2024-03-22T02:31:18;10.50;99.90
40253;DHT22;25972;51.854;4.534;2024-03-22T02:33:45;10.40;99.90
40253;DHT22;25972;51.854;4.534;2024-03-22T02:36:11;10.40;99.90
40253;DHT22;25972;51.854;4.534;2024-03-22T02:38:37;10.40;99.90
40253;DHT22;25972;51.854;4.534;2024-03-22T02:41:02;10.40;99.90
40253;DHT22;25972;51.854;4.534;2024-03-22T02:43:28;10.40;99.90
40253;DHT22;25972;51.854;4.534;2024-03-22T02:45:54;10.50;99.90
40253;DHT22;25972;51.854;4.534;2024-03-22T02:48:22;10.50;99.90
40253;DHT22;25972;51.854;4.534;2024-03-22T02:50:48;10.40;99.90
40253;DHT22;25972;51.854;4.534;2024-03-22T02:53:13;10.40;99.90
40253;DHT22;25972;51.854;4.534;2024-03-22T02:55:40;10.40;99.90
40253;DHT22;25972;51.854;4.534;2024-03-22T02:58:06;10.40;99.90
40253;DHT22;25972;51.854;4.534;2024-03-22T03:00:38;10.40;99.90
40253;DHT22;25972;51.854;4.534;2024-03-22T03:03:07;10.40;99.90
40253;DHT22;25972;51.854;4.534;2024-03-22T03:05:33;10.40;99.90
40253;DHT22;25972;51.854;4.534;2024-03-22T03:08:00;10.40;99.90
40253;DHT22;25972;51.854;4.534;2024-03-22T03:10:26;10.40;99.90
40253;DHT22;25972;51.854;4.534;2024-03-22T03:12:53;10.40;99.90
40253;DHT22;25972;51.854;4.534;2024-03-22T03:15:19;10.40;99.90
40253;DHT22;25972;51.854;4.534;2024-03-22T03:17:45;10.30;99.90
40253;DHT22;25972;51.854;4.534;2024-03-22T03:20:11;10.30;99.90
40253;DHT22;25972;51.854;4.534;2024-03-22T03:22:41;10.30;99.90
40253;DHT22;25972;51.854;4.534;2024-03-22T03:25:07;10.30;99.90
40253;DHT22;25972;51.854;4.534;2024-03-22T03:27:33;10.30;99.90
40253;DHT22;25972;51.854;4.534;2024-03-22T03:29:59;10.30;99.90
40253;DHT22;25972;51.854;4.534;2024-03-22T03:32:26;10.20;99.90
40253;DHT22;25972;51.854;4.534;2024-03-22T03:34:52;10.30;99.90
40253;DHT22;25972;51.854;4.534;2024-03-22T03:37:17;10.30;99.90
40253;DHT22;25972;51.854;4.534;2024-03-22T03:39:43;10.20;99.90
40253;DHT22;25972;51.854;4.534;2024-03-22T03:42:09;10.30;99.90
40253;DHT22;25972;51.854;4.534;2024-03-22T03:44:34;10.20;99.90
40253;DHT22;25972;51.854;4.534;2024-03-22T03:47:01;10.20;99.90
40253;DHT22;25972;51.854;4.534;2024-03-22T03:49:27;10.20;99.90
40253;DHT22;25972;51.854;4.534;2024-03-22T03:51:52;10.20;99.90
40253;DHT22;25972;51.854;4.534;2024-03-22T03:54:18;10.20;99.90
40253;DHT22;25972;51.854;4.534;2024-03-22T03:56:44;10.20;99.90
40253;DHT22;25972;51.854;4.534;2024-03-22T03:59:09;10.20;99.90
40253;DHT22;25972;51.854;4.534;2024-03-22T04:01:35;10.20;99.90
40253;DHT22;25972;51.854;4.534;2024-03-22T04:04:02;10.20;99.90
40253;DHT22;25972;51.854;4.534;2024-03-22T04:06:28;10.20;99.90
40253;DHT22;25972;51.854;4.534;2024-03-22T04:08:53;10.10;99.90
40253;DHT22;25972;51.854;4.534;2024-03-22T04:11:19;10.10;99.90
40253;DHT22;25972;51.854;4.534;2024-03-22T04:13:45;10.10;99.90
40253;DHT22;25972;51.854;4.534;2024-03-22T04:16:10;10.10;99.90
40253;DHT22;25972;51.854;4.534;2024-03-22T04:18:36;10.10;99.90
40253;DHT22;25972;51.854;4.534;2024-03-22T04:21:02;10.10;99.90
40253;DHT22;25972;51.854;4.534;2024-03-22T04:23:27;10.10;99.90
40253;DHT22;25972;51.854;4.534;2024-03-22T04:26:00;10.10;99.90
40253;DHT22;25972;51.854;4.534;2024-03-22T04:28:27;10.10;99.90
40253;DHT22;25972;51.854;4.534;2024-03-22T04:31:03;10.10;99.90
40253;DHT22;25972;51.854;4.534;2024-03-22T04:33:29;10.10;99.90
40253;DHT22;25972;51.854;4.534;2024-03-22T04:35:56;10.10;99.90
40253;DHT22;25972;51.854;4.534;2024-03-22T04:38:22;10.00;99.90
40253;DHT22;25972;51.854;4.534;2024-03-22T04:40:48;10.00;99.90
40253;DHT22;25972;51.854;4.534;2024-03-22T04:43:14;10.00;99.90
40253;DHT22;25972;51.854;4.534;2024-03-22T04:45:45;10.00;99.90
40253;DHT22;25972;51.854;4.534;2024-03-22T04:48:13;10.00;99.90
40253;DHT22;25972;51.854;4.534;2024-03-22T04:50:38;10.10;99.90
40253;DHT22;25972;51.854;4.534;2024-03-22T04:53:04;10.10;99.90
40253;DHT22;25972;51.854;4.534;2024-03-22T04:55:31;10.10;99.90
40253;DHT22;25972;51.854;4.534;2024-03-22T04:57:58;10.00;99.90
40253;DHT22;25972;51.854;4.534;2024-03-22T05:00:26;10.10;99.90
40253;DHT22;25972;51.854;4.534;2024-03-22T05:02:52;10.10;99.90
40253;DHT22;25972;51.854;4.534;2024-03-22T05:05:18;10.10;99.90
40253;DHT22;25972;51.854;4.534;2024-03-22T05:07:43;10.10;99.90
40253;DHT22;25972;51.854;4.534;2024-03-22T05:10:09;10.10;99.90
40253;DHT22;25972;51.854;4.534;2024-03-22T05:12:36;10.10;99.90
40253;DHT22;25972;51.854;4.534;2024-03-22T05:15:05;10.10;99.90
40253;DHT22;25972;51.854;4.534;2024-03-22T05:17:31;10.10;99.90
40253;DHT22;25972;51.854;4.534;2024-03-22T05:19:59;10.10;99.90
40253;DHT22;25972;51.854;4.534;2024-03-22T05:22:25;10.10;99.90
40253;DHT22;25972;51.854;4.534;2024-03-22T05:24:50;10.10;99.90
40253;DHT22;25972;51.854;4.534;2024-03-22T05:27:17;10.10;99.90
40253;DHT22;25972;51.854;4.534;2024-03-22T05:29:43;10.10;99.90
40253;DHT22;25972;51.854;4.534;2024-03-22T05:32:09;10.10;99.90
40253;DHT22;25972;51.854;4.534;2024-03-22T05:34:34;10.10;99.90
40253;DHT22;25972;51.854;4.534;2024-03-22T05:37:01;10.10;99.90
40253;DHT22;25972;51.854;4.534;2024-03-22T05:39:27;10.10;99.90
40253;DHT22;25972;51.854;4.534;2024-03-22T05:41:52;10.20;99.90
40253;DHT22;25972;51.854;4.534;2024-03-22T05:44:22;10.10;99.90
40253;DHT22;25972;51.854;4.534;2024-03-22T05:46:48;10.10;99.90
40253;DHT22;25972;51.854;4.534;2024-03-22T05:49:13;10.10;99.90
40253;DHT22;25972;51.854;4.534;2024-03-22T05:51:39;10.10;99.90
40253;DHT22;25972;51.854;4.534;2024-03-22T05:54:05;10.10;99.90
40253;DHT22;25972;51.854;4.534;2024-03-22T05:56:31;10.10;99.90
40253;DHT22;25972;51.854;4.534;2024-03-22T05:58:56;10.10;99.90
40253;DHT22;25972;51.854;4.534;2024-03-22T06:01:22;10.10;99.90
40253;DHT22;25972;51.854;4.534;2024-03-22T06:03:48;10.10;99.90
40253;DHT22;25972;51.854;4.534;2024-03-22T06:06:13;10.10;99.90
40253;DHT22;25972;51.854;4.534;2024-03-22T06:08:39;10.10;99.90
40253;DHT22;25972;51.854;4.534;2024-03-22T06:11:07;10.10;99.90
40253;DHT22;25972;51.854;4.534;2024-03-22T06:13:33;10.10;99.90
40253;DHT22;25972;51.854;4.534;2024-03-22T06:16:00;10.10;99.90
40253;DHT22;25972;51.854;4.534;2024-03-22T06:18:26;10.10;99.90
40253;DHT22;25972;51.854;4.534;2024-03-22T06:20:51;10.10;99.90
40253;DHT22;25972;51.854;4.534;2024-03-22T06:23:20;10.10;99.90
40253;DHT22;25972;51.854;4.534;2024-03-22T06:25:55;10.10;99.90
40253;DHT22;25972;51.854;4.534;2024-03-22T06:28:22;10.10;99.90
40253;DHT22;25972;51.854;4.534;2024-03-22T06:30:47;10.10;99.90
40253;DHT22;25972;51.854;4.534;2024-03-22T06:33:13;10.20;99.90
40253;DHT22;25972;51.854;4.534;2024-03-22T06:35:40;10.20;99.90
40253;DHT22;25972;51.854;4.534;2024-03-22T06:38:08;10.30;99.90
40253;DHT22;25972;51.854;4.534;2024-03-22T06:40:34;10.30;99.90
40253;DHT22;25972;51.854;4.534;2024-03-22T06:43:00;10.40;99.90
40253;DHT22;25972;51.854;4.534;2024-03-22T06:45:26;10.40;99.90
40253;DHT22;25972;51.854;4.534;2024-03-22T06:47:52;10.50;99.90
40253;DHT22;25972;51.854;4.534;2024-03-22T06:50:17;10.50;99.90
40253;DHT22;25972;51.854;4.534;2024-03-22T06:52:43;10.60;99.90
40253;DHT22;25972;51.854;4.534;2024-03-22T06:55:09;10.70;99.90
40253;DHT22;25972;51.854;4.534;2024-03-22T06:57:37;10.70;99.90
40253;DHT22;25972;51.854;4.534;2024-03-22T07:00:04;10.70;99.90
40253;DHT22;25972;51.854;4.534;2024-03-22T07:02:29;10.70;99.90
40253;DHT22;25972;51.854;4.534;2024-03-22T07:04:55;10.70;99.90
40253;DHT22;25972;51.854;4.534;2024-03-22T07:07:21;10.70;99.90
40253;DHT22;25972;51.854;4.534;2024-03-22T07:09:46;10.70;99.90
40253;DHT22;25972;51.854;4.534;2024-03-22T07:12:13;10.80;99.90
40253;DHT22;25972;51.854;4.534;2024-03-22T07:14:39;10.80;99.90
40253;DHT22;25972;51.854;4.534;2024-03-22T07:17:04;10.80;99.90
40253;DHT22;25972;51.854;4.534;2024-03-22T07:19:30;10.80;99.90
40253;DHT22;25972;51.854;4.534;2024-03-22T07:21:56;10.80;99.90
40253;DHT22;25972;51.854;4.534;2024-03-22T07:24:24;10.90;99.90
40253;DHT22;25972;51.854;4.534;2024-03-22T07:26:50;10.80;99.90
40253;DHT22;25972;51.854;4.534;2024-03-22T07:29:15;10.80;99.90
40253;DHT22;25972;51.854;4.534;2024-03-22T07:31:41;10.90;99.90
40253;DHT22;25972;51.854;4.534;2024-03-22T07:34:07;10.80;99.90
40253;DHT22;25972;51.854;4.534;2024-03-22T07:36:37;10.80;99.90
40253;DHT22;25972;51.854;4.534;2024-03-22T07:39:03;10.90;99.90
40253;DHT22;25972;51.854;4.534;2024-03-22T07:41:32;10.80;99.90
40253;DHT22;25972;51.854;4.534;2024-03-22T07:44:01;10.80;99.90
40253;DHT22;25972;51.854;4.534;2024-03-22T07:46:28;10.80;99.90
40253;DHT22;25972;51.854;4.534;2024-03-22T07:48:53;10.80;99.90
40253;DHT22;25972;51.854;4.534;2024-03-22T07:51:22;10.90;99.90
40253;DHT22;25972;51.854;4.534;2024-03-22T07:53:48;10.90;99.90
40253;DHT22;25972;51.854;4.534;2024-03-22T07:56:13;10.90;99.90
40253;DHT22;25972;51.854;4.534;2024-03-22T07:58:41;10.90;99.90
40253;DHT22;25972;51.854;4.534;2024-03-22T08:01:07;10.90;99.90
40253;DHT22;25972;51.854;4.534;2024-03-22T08:03:32;10.90;99.90
40253;DHT22;25972;51.854;4.534;2024-03-22T08:05:58;10.90;99.90
40253;DHT22;25972;51.854;4.534;2024-03-22T08:08:24;10.90;99.90
40253;DHT22;25972;51.854;4.534;2024-03-22T08:10:50;10.90;99.90
40253;DHT22;25972;51.854;4.534;2024-03-22T08:13:15;10.90;99.90
40253;DHT22;25972;51.854;4.534;2024-03-22T08:15:41;10.90;99.90
40253;DHT22;25972;51.854;4.534;2024-03-22T08:18:09;10.90;99.90
40253;DHT22;25972;51.854;4.534;2024-03-22T08:20:34;10.90;99.90
40253;DHT22;25972;51.854;4.534;2024-03-22T08:23:00;10.90;99.90
40253;DHT22;25972;51.854;4.534;2024-03-22T08:25:26;10.90;99.90
40253;DHT22;25972;51.854;4.534;2024-03-22T08:27:51;10.90;99.90
40253;DHT22;25972;51.854;4.534;2024-03-22T08:30:21;10.90;99.90
40253;DHT22;25972;51.854;4.534;2024-03-22T08:32:47;10.90;99.90
40253;DHT22;25972;51.854;4.534;2024-03-22T08:35:13;10.90;99.90
40253;DHT22;25972;51.854;4.534;2024-03-22T08:37:39;10.90;99.90
40253;DHT22;25972;51.854;4.534;2024-03-22T08:40:05;10.90;99.90
40253;DHT22;25972;51.854;4.534;2024-03-22T08:42:30;10.90;99.90
40253;DHT22;25972;51.854;4.534;2024-03-22T08:44:56;10.90;99.90
40253;DHT22;25972;51.854;4.534;2024-03-22T08:47:22;10.80;99.90
40253;DHT22;25972;51.854;4.534;2024-03-22T08:49:49;10.90;99.90
40253;DHT22;25972;51.854;4.534;2024-03-22T08:52:15;10.90;99.90
40253;DHT22;25972;51.854;4.534;2024-03-22T08:54:41;10.90;99.90
40253;DHT22;25972;51.854;4.534;2024-03-22T08:57:07;10.80;99.90
40253;DHT22;25972;51.854;4.534;2024-03-22T08:59:32;10.70;99.90
40253;DHT22;25972;51.854;4.534;2024-03-22T09:01:58;10.80;99.90
40253;DHT22;25972;51.854;4.534;2024-03-22T09:04:25;10.80;99.90
40253;DHT22;25972;51.854;4.534;2024-03-22T09:06:50;10.80;99.90
40253;DHT22;25972;51.854;4.534;2024-03-22T09:09:16;10.70;99.90
40253;DHT22;25972;51.854;4.534;2024-03-22T09:11:43;10.80;99.90
40253;DHT22;25972;51.854;4.534;2024-03-22T09:14:08;10.70;99.90
40253;DHT22;25972;51.854;4.534;2024-03-22T09:16:34;10.70;99.90
40253;DHT22;25972;51.854;4.534;2024-03-22T09:19:00;10.70;99.90
40253;DHT22;25972;51.854;4.534;2024-03-22T09:21:26;10.60;99.90
40253;DHT22;25972;51.854;4.534;2024-03-22T09:23:51;10.60;99.90
40253;DHT22;25972;51.854;4.534;2024-03-22T09:26:17;10.60;99.90
40253;DHT22;25972;51.854;4.534;2024-03-22T09:28:46;10.60;99.90
40253;DHT22;25972;51.854;4.534;2024-03-22T09:31:11;10.70;99.90
40253;DHT22;25972;51.854;4.534;2024-03-22T09:33:37;10.70;99.90
40253;DHT22;25972;51.854;4.534;2024-03-22T09:36:03;10.70;99.90
40253;DHT22;25972;51.854;4.534;2024-03-22T09:38:29;10.70;99.90
40253;DHT22;25972;51.854;4.534;2024-03-22T09:40:55;10.70;99.90
40253;DHT22;25972;51.854;4.534;2024-03-22T09:43:21;10.70;99.90
40253;DHT22;25972;51.854;4.534;2024-03-22T09:45:48;10.80;99.90
40253;DHT22;25972;51.854;4.534;2024-03-22T09:48:18;10.80;99.90
40253;DHT22;25972;51.854;4.534;2024-03-22T09:50:46;10.70;99.90
40253;DHT22;25972;51.854;4.534;2024-03-22T09:53:13;10.70;99.90
40253;DHT22;25972;51.854;4.534;2024-03-22T09:55:44;10.70;99.90
40253;DHT22;25972;51.854;4.534;2024-03-22T09:58:10;10.70;99.90
40253;DHT22;25972;51.854;4.534;2024-03-22T10:00:36;10.70;99.90
40253;DHT22;25972;51.854;4.534;2024-03-22T10:03:04;10.70;99.90
40253;DHT22;25972;51.854;4.534;2024-03-22T10:05:30;10.70;99.90
40253;DHT22;25972;51.854;4.534;2024-03-22T10:07:55;10.70;99.90
40253;DHT22;25972;51.854;4.534;2024-03-22T10:10:21;10.70;99.90
40253;DHT22;25972;51.854;4.534;2024-03-22T10:12:47;10.70;99.90
40253;DHT22;25972;51.854;4.534;2024-03-22T10:15:13;10.70;99.90
40253;DHT22;25972;51.854;4.534;2024-03-22T10:17:39;10.80;99.90
40253;DHT22;25972;51.854;4.534;2024-03-22T10:20:06;10.80;99.90
40253;DHT22;25972;51.854;4.534;2024-03-22T10:22:41;10.80;99.90
40253;DHT22;25972;51.854;4.534;2024-03-22T10:25:07;10.80;99.90
40253;DHT22;25972;51.854;4.534;2024-03-22T10:27:32;10.80;99.90
40253;DHT22;25972;51.854;4.534;2024-03-22T10:29:58;10.90;99.90
40253;DHT22;25972;51.854;4.534;2024-03-22T10:32:24;10.90;99.90
40253;DHT22;25972;51.854;4.534;2024-03-22T10:34:50;11.00;99.90
40253;DHT22;25972;51.854;4.534;2024-03-22T10:37:16;11.00;99.90
40253;DHT22;25972;51.854;4.534;2024-03-22T10:39:43;11.00;99.90
40253;DHT22;25972;51.854;4.534;2024-03-22T10:42:10;11.00;99.90
40253;DHT22;25972;51.854;4.534;2024-03-22T10:44:38;11.00;99.90
40253;DHT22;25972;51.854;4.534;2024-03-22T10:47:04;11.00;99.90
40253;DHT22;25972;51.854;4.534;2024-03-22T10:49:37;11.00;99.90
40253;DHT22;25972;51.854;4.534;2024-03-22T10:52:03;11.10;99.90
40253;DHT22;25972;51.854;4.534;2024-03-22T10:54:40;11.10;99.90
40253;DHT22;25972;51.854;4.534;2024-03-22T10:57:12;11.20;99.90
40253;DHT22;25972;51.854;4.534;2024-03-22T10:59:41;11.20;99.90
40253;DHT22;25972;51.854;4.534;2024-03-22T11:02:09;11.30;99.90
40253;DHT22;25972;51.854;4.534;2024-03-22T11:04:35;11.30;99.90
40253;DHT22;25972;51.854;4.534;2024-03-22T11:07:01;11.40;99.90
40253;DHT22;25972;51.854;4.534;2024-03-22T11:09:29;11.40;99.90
40253;DHT22;25972;51.854;4.534;2024-03-22T11:11:56;11.30;99.90
40253;DHT22;25972;51.854;4.534;2024-03-22T11:14:22;11.40;99.90
40253;DHT22;25972;51.854;4.534;2024-03-22T11:16:50;11.40;99.90
40253;DHT22;25972;51.854;4.534;2024-03-22T11:19:16;11.50;99.90
40253;DHT22;25972;51.854;4.534;2024-03-22T11:21:42;11.50;99.90
40253;DHT22;25972;51.854;4.534;2024-03-22T11:24:08;11.50;99.90
40253;DHT22;25972;51.854;4.534;2024-03-22T11:26:35;11.40;99.90
40253;DHT22;25972;51.854;4.534;2024-03-22T11:29:00;11.40;99.90
40253;DHT22;25972;51.854;4.534;2024-03-22T11:31:27;11.40;99.90
40253;DHT22;25972;51.854;4.534;2024-03-22T11:33:53;11.30;99.90
40253;DHT22;25972;51.854;4.534;2024-03-22T11:36:19;11.30;99.90
40253;DHT22;25972;51.854;4.534;2024-03-22T11:38:46;11.30;99.90
40253;DHT22;25972;51.854;4.534;2024-03-22T11:41:20;11.30;99.90
40253;DHT22;25972;51.854;4.534;2024-03-22T11:43:48;11.50;99.90
40253;DHT22;25972;51.854;4.534;2024-03-22T11:46:15;11.50;99.90
40253;DHT22;25972;51.854;4.534;2024-03-22T11:48:41;11.50;99.90
40253;DHT22;25972;51.854;4.534;2024-03-22T11:51:08;11.50;99.90
40253;DHT22;25972;51.854;4.534;2024-03-22T11:53:37;11.50;99.90
40253;DHT22;25972;51.854;4.534;2024-03-22T11:56:04;11.60;99.90
40253;DHT22;25972;51.854;4.534;2024-03-22T11:58:30;11.60;99.90
40253;DHT22;25972;51.854;4.534;2024-03-22T12:00:59;11.60;99.90
40253;DHT22;25972;51.854;4.534;2024-03-22T12:03:25;11.60;99.90
40253;DHT22;25972;51.854;4.534;2024-03-22T12:05:54;11.60;99.90
40253;DHT22;25972;51.854;4.534;2024-03-22T12:08:20;11.70;99.90
40253;DHT22;25972;51.854;4.534;2024-03-22T12:10:45;11.80;99.90
40253;DHT22;25972;51.854;4.534;2024-03-22T12:13:11;11.80;99.90
40253;DHT22;25972;51.854;4.534;2024-03-22T12:15:37;12.00;99.90
40253;DHT22;25972;51.854;4.534;2024-03-22T12:18:03;11.90;99.90
40253;DHT22;25972;51.854;4.534;2024-03-22T12:20:28;11.90;99.90
40253;DHT22;25972;51.854;4.534;2024-03-22T12:22:55;11.90;99.90
40253;DHT22;25972;51.854;4.534;2024-03-22T12:25:20;12.00;99.90
40253;DHT22;25972;51.854;4.534;2024-03-22T12:27:47;11.90;99.90
40253;DHT22;25972;51.854;4.534;2024-03-22T12:30:13;11.90;99.90
40253;DHT22;25972;51.854;4.534;2024-03-22T12:32:39;12.00;99.90
40253;DHT22;25972;51.854;4.534;2024-03-22T12:35:05;12.00;99.90
40253;DHT22;25972;51.854;4.534;2024-03-22T12:37:31;11.90;99.90
40253;DHT22;25972;51.854;4.534;2024-03-22T12:39:56;11.90;99.90
40253;DHT22;25972;51.854;4.534;2024-03-22T12:42:22;11.80;99.90
40253;DHT22;25972;51.854;4.534;2024-03-22T12:44:48;11.70;99.90
40253;DHT22;25972;51.854;4.534;2024-03-22T12:47:14;11.60;99.90
40253;DHT22;25972;51.854;4.534;2024-03-22T12:49:39;11.60;99.90
40253;DHT22;25972;51.854;4.534;2024-03-22T12:52:06;11.60;99.90
40253;DHT22;25972;51.854;4.534;2024-03-22T12:54:32;11.50;99.90
40253;DHT22;25972;51.854;4.534;2024-03-22T12:56:58;11.40;99.90
40253;DHT22;25972;51.854;4.534;2024-03-22T12:59:23;11.40;99.90
40253;DHT22;25972;51.854;4.534;2024-03-22T13:01:49;11.40;99.90
40253;DHT22;25972;51.854;4.534;2024-03-22T13:04:15;11.40;99.90
40253;DHT22;25972;51.854;4.534;2024-03-22T13:06:42;11.40;99.90
40253;DHT22;25972;51.854;4.534;2024-03-22T13:09:08;11.30;99.90
40253;DHT22;25972;51.854;4.534;2024-03-22T13:11:35;11.30;99.90
40253;DHT22;25972;51.854;4.534;2024-03-22T13:14:01;11.30;99.90
40253;DHT22;25972;51.854;4.534;2024-03-22T13:16:27;11.30;99.90
40253;DHT22;25972;51.854;4.534;2024-03-22T13:18:53;11.40;99.90
40253;DHT22;25972;51.854;4.534;2024-03-22T13:21:18;11.30;99.90
40253;DHT22;25972;51.854;4.534;2024-03-22T13:23:44;11.30;99.90
40253;DHT22;25972;51.854;4.534;2024-03-22T13:26:10;11.40;99.90
40253;DHT22;25972;51.854;4.534;2024-03-22T13:28:36;11.50;99.90
40253;DHT22;25972;51.854;4.534;2024-03-22T13:31:03;11.50;99.90
40253;DHT22;25972;51.854;4.534;2024-03-22T13:33:33;11.50;99.90
40253;DHT22;25972;51.854;4.534;2024-03-22T13:36:00;11.50;99.90
40253;DHT22;25972;51.854;4.534;2024-03-22T13:38:25;11.50;99.90
40253;DHT22;25972;51.854;4.534;2024-03-22T13:40:56;11.60;99.90
40253;DHT22;25972;51.854;4.534;2024-03-22T13:43:23;11.60;99.90
40253;DHT22;25972;51.854;4.534;2024-03-22T13:45:52;11.60;99.90
40253;DHT22;25972;51.854;4.534;2024-03-22T13:48:22;11.60;99.90
40253;DHT22;25972;51.854;4.534;2024-03-22T13:53:17;11.70;99.90
40253;DHT22;25972;51.854;4.534;2024-03-22T13:55:43;11.80;99.90
40253;DHT22;25972;51.854;4.534;2024-03-22T13:58:09;11.90;99.90
40253;DHT22;25972;51.854;4.534;2024-03-22T14:00:34;12.00;99.90
40253;DHT22;25972;51.854;4.534;2024-03-22T14:03:01;12.10;99.90
40253;DHT22;25972;51.854;4.534;2024-03-22T14:05:27;12.00;99.90
40253;DHT22;25972;51.854;4.534;2024-03-22T14:07:53;11.90;99.90
40253;DHT22;25972;51.854;4.534;2024-03-22T14:10:18;12.00;99.90
40253;DHT22;25972;51.854;4.534;2024-03-22T14:12:45;12.00;99.90
40253;DHT22;25972;51.854;4.534;2024-03-22T14:15:12;11.90;99.90
40253;DHT22;25972;51.854;4.534;2024-03-22T14:17:38;11.70;99.90
40253;DHT22;25972;51.854;4.534;2024-03-22T14:20:05;11.70;99.90
40253;DHT22;25972;51.854;4.534;2024-03-22T14:22:39;11.70;99.90
40253;DHT22;25972;51.854;4.534;2024-03-22T14:25:09;11.50;99.90
40253;DHT22;25972;51.854;4.534;2024-03-22T14:27:36;11.60;99.90
40253;DHT22;25972;51.854;4.534;2024-03-22T14:30:03;11.50;99.90
40253;DHT22;25972;51.854;4.534;2024-03-22T14:32:33;11.40;99.90
40253;DHT22;25972;51.854;4.534;2024-03-22T14:34:59;11.40;99.90
40253;DHT22;25972;51.854;4.534;2024-03-22T14:37:24;11.40;99.90
40253;DHT22;25972;51.854;4.534;2024-03-22T14:39:50;11.40;99.90
40253;DHT22;25972;51.854;4.534;2024-03-22T14:42:16;11.40;99.90
40253;DHT22;25972;51.854;4.534;2024-03-22T14:44:41;11.30;99.90
40253;DHT22;25972;51.854;4.534;2024-03-22T14:47:07;11.40;99.90
40253;DHT22;25972;51.854;4.534;2024-03-22T14:49:33;11.30;99.90
40253;DHT22;25972;51.854;4.534;2024-03-22T14:51:58;11.30;99.90
40253;DHT22;25972;51.854;4.534;2024-03-22T14:54:24;11.20;99.90
40253;DHT22;25972;51.854;4.534;2024-03-22T14:56:50;11.30;99.90
40253;DHT22;25972;51.854;4.534;2024-03-22T14:59:16;11.30;99.90
40253;DHT22;25972;51.854;4.534;2024-03-22T15:01:42;11.30;99.90
40253;DHT22;25972;51.854;4.534;2024-03-22T15:04:07;11.30;99.90
40253;DHT22;25972;51.854;4.534;2024-03-22T15:06:33;11.30;99.90
40253;DHT22;25972;51.854;4.534;2024-03-22T15:08:59;11.30;99.90
40253;DHT22;25972;51.854;4.534;2024-03-22T15:11:30;11.40;99.90
40253;DHT22;25972;51.854;4.534;2024-03-22T15:13:56;11.30;99.90
40253;DHT22;25972;51.854;4.534;2024-03-22T15:16:21;11.30;99.90
40253;DHT22;25972;51.854;4.534;2024-03-22T15:18:47;11.30;99.90
40253;DHT22;25972;51.854;4.534;2024-03-22T15:21:14;11.20;99.90
40253;DHT22;25972;51.854;4.534;2024-03-22T15:23:39;11.20;99.90
40253;DHT22;25972;51.854;4.534;2024-03-22T15:26:06;11.20;99.90
40253;DHT22;25972;51.854;4.534;2024-03-22T15:28:31;11.20;99.90
40253;DHT22;25972;51.854;4.534;2024-03-22T15:30:57;11.20;99.90